Time;durP1;ratioP1;P1;durP2;ratioP2;P2;SDS_P1;SDS_P2;PMS_P1;PMS_P2;Temp;Humidity;BMP_temperature;BMP_pressure;BME280_temperature;BME280_humidity;BME280_pressure;Samples;Min_cycle;Max_cycle;Signal;HPM_P1;HPM_P2
2023/03/11 00:00:22;;;;;;;9.27;2.80;;;1.40;99.90;;;;;;5027375;28;20296;-74
2023/03/11 00:02:51;;;;;;;11.47;2.83;;;1.40;99.90;;;;;;5028714;28;20246;-74
2023/03/11 00:05:25;;;;;;;5.93;2.50;;;1.40;99.90;;;;;;5044023;28;21087;-74
2023/03/11 00:07:52;;;;;;;10.73;3.50;;;1.40;99.90;;;;;;5034814;28;20202;-73
2023/03/11 00:10:26;;;;;;;10.17;2.73;;;1.40;99.90;;;;;;5043614;28;20233;-72
2023/03/11 00:12:56;;;;;;;6.93;2.77;;;1.40;99.90;;;;;;5042492;28;20692;-74
2023/03/11 00:15:23;;;;;;;11.03;3.73;;;1.30;99.90;;;;;;5043508;28;20554;-73
2023/03/11 00:17:50;;;;;;;9.70;2.90;;;1.30;99.90;;;;;;5033267;28;20267;-74
2023/03/11 00:20:23;;;;;;;8.33;2.73;;;1.30;99.90;;;;;;5040539;28;20664;-75
2023/03/11 00:22:50;;;;;;;8.67;2.67;;;1.30;99.90;;;;;;5046825;28;20207;-74
2023/03/11 00:25:18;;;;;;;6.67;2.73;;;1.30;99.90;;;;;;5025498;28;20276;-73
2023/03/11 00:27:45;;;;;;;7.50;2.30;;;1.30;99.90;;;;;;5047323;28;20232;-74
2023/03/11 00:30:14;;;;;;;8.97;2.93;;;1.30;99.90;;;;;;5023817;28;20216;-74
2023/03/11 00:32:41;;;;;;;10.00;2.87;;;1.30;99.90;;;;;;5043375;28;20209;-73
2023/03/11 00:35:15;;;;;;;9.80;3.33;;;1.30;99.90;;;;;;5025924;28;20717;-73
2023/03/11 00:37:44;;;;;;;11.30;3.23;;;1.30;99.90;;;;;;5044286;28;20463;-73
2023/03/11 00:40:13;;;;;;;3.90;2.80;;;1.30;99.90;;;;;;5023347;28;20257;-73
2023/03/11 00:42:39;;;;;;;7.57;3.20;;;1.30;99.90;;;;;;5047085;28;20314;-73
2023/03/11 00:45:07;;;;;;;7.70;2.90;;;1.30;99.90;;;;;;5046816;28;20216;-73
2023/03/11 00:47:34;;;;;;;5.77;2.50;;;1.30;99.90;;;;;;5043437;28;20222;-73
2023/03/11 00:50:00;;;;;;;10.33;2.87;;;1.30;99.90;;;;;;5045136;28;20281;-74
2023/03/11 00:52:30;;;;;;;10.47;2.67;;;1.30;99.90;;;;;;5041052;28;20238;-73
2023/03/11 00:54:58;;;;;;;7.70;2.57;;;1.30;99.90;;;;;;5047844;28;20268;-74
2023/03/11 00:57:27;;;;;;;6.17;2.67;;;1.30;99.90;;;;;;5046456;28;20234;-72
2023/03/11 00:59:54;;;;;;;10.87;2.77;;;1.30;99.90;;;;;;5037322;28;20283;-74
2023/03/11 01:02:22;;;;;;;9.57;2.20;;;1.30;99.90;;;;;;5043627;28;20221;-75
2023/03/11 01:04:54;;;;;;;6.63;2.03;;;1.30;99.90;;;;;;5042270;28;20293;-74
2023/03/11 01:07:21;;;;;;;7.13;2.53;;;1.30;99.90;;;;;;5025399;28;20281;-74
2023/03/11 01:09:48;;;;;;;9.77;2.63;;;1.30;99.90;;;;;;5042576;28;20761;-73
2023/03/11 01:12:15;;;;;;;7.70;2.60;;;1.30;99.90;;;;;;5039955;28;21037;-73
2023/03/11 01:14:41;;;;;;;10.93;2.80;;;1.30;99.90;;;;;;5043609;28;20284;-73
2023/03/11 01:17:09;;;;;;;13.03;2.67;;;1.30;99.90;;;;;;5039448;28;20248;-75
2023/03/11 01:19:35;;;;;;;10.37;2.53;;;1.30;99.90;;;;;;5042928;28;20205;-74
2023/03/11 01:22:02;;;;;;;6.53;2.47;;;1.30;99.90;;;;;;5041625;28;20216;-73
2023/03/11 01:24:29;;;;;;;3.30;2.07;;;1.30;99.90;;;;;;5040617;28;20241;-74
2023/03/11 01:26:56;;;;;;;11.07;2.90;;;1.30;99.90;;;;;;5046828;28;20205;-73
2023/03/11 01:29:23;;;;;;;9.87;3.13;;;1.30;99.90;;;;;;5031241;28;20237;-73
2023/03/11 01:31:49;;;;;;;8.03;2.63;;;1.30;99.90;;;;;;5031483;28;20285;-74
2023/03/11 01:34:16;;;;;;;6.13;2.37;;;1.20;99.90;;;;;;5020991;28;20305;-74
2023/03/11 01:36:43;;;;;;;9.77;2.60;;;1.30;99.90;;;;;;5044757;28;20209;-74
2023/03/11 01:39:10;;;;;;;9.00;2.50;;;1.30;99.90;;;;;;5042281;28;20244;-73
2023/03/11 01:41:36;;;;;;;9.93;2.63;;;1.30;99.90;;;;;;5025947;28;20283;-74
2023/03/11 01:44:04;;;;;;;7.10;2.60;;;1.30;99.90;;;;;;5043260;28;20209;-73
2023/03/11 01:46:36;;;;;;;9.40;2.50;;;1.30;99.90;;;;;;5024904;28;20212;-74
2023/03/11 01:49:05;;;;;;;9.63;2.53;;;1.30;99.90;;;;;;5041289;28;20309;-74
2023/03/11 01:51:36;;;;;;;7.40;2.33;;;1.30;99.90;;;;;;5042095;28;20202;-74
2023/03/11 01:54:25;;;;;;;10.17;2.47;;;1.30;99.90;;;;;;5039810;28;20225;-73
2023/03/11 01:56:53;;;;;;;7.77;2.63;;;1.30;99.90;;;;;;5045878;28;20206;-73
2023/03/11 01:59:34;;;;;;;8.33;3.00;;;1.30;99.90;;;;;;5035007;28;20206;-72
2023/03/11 02:02:11;;;;;;;10.47;3.10;;;1.20;99.90;;;;;;5038868;28;20216;-74
2023/03/11 02:04:39;;;;;;;9.83;3.10;;;1.20;99.90;;;;;;5043029;28;20291;-72
2023/03/11 02:07:08;;;;;;;15.87;2.93;;;1.10;99.90;;;;;;5039305;28;20241;-73
2023/03/11 02:09:36;;;;;;;8.37;2.60;;;1.10;99.90;;;;;;5042133;28;20209;-73
2023/03/11 02:12:06;;;;;;;4.27;2.27;;;1.00;99.90;;;;;;5039861;28;20738;-73
2023/03/11 02:14:35;;;;;;;6.73;2.67;;;1.00;99.90;;;;;;5042752;28;20297;-72
2023/03/11 02:17:02;;;;;;;9.73;3.57;;;1.00;99.90;;;;;;5025579;28;20227;-73
2023/03/11 02:19:56;;;;;;;10.63;3.13;;;1.00;99.90;;;;;;5038839;28;20202;-73
2023/03/11 02:22:24;;;;;;;7.27;2.30;;;0.90;99.90;;;;;;5038616;28;20206;-74
2023/03/11 02:25:08;;;;;;;4.10;2.27;;;0.90;99.90;;;;;;5021930;28;20225;-73
2023/03/11 02:27:40;;;;;;;6.17;2.33;;;1.00;99.90;;;;;;5044355;28;20215;-73
2023/03/11 02:30:10;;;;;;;6.07;2.33;;;1.00;99.90;;;;;;5024943;28;20408;-73
2023/03/11 02:32:37;;;;;;;6.67;2.17;;;1.00;99.90;;;;;;5023593;28;20297;-72
2023/03/11 02:35:04;;;;;;;7.10;2.23;;;1.10;99.90;;;;;;5038257;28;20244;-74
2023/03/11 02:37:31;;;;;;;9.63;2.33;;;1.00;99.90;;;;;;5020706;28;20209;-73
2023/03/11 02:40:22;;;;;;;7.17;2.60;;;1.00;99.90;;;;;;5042378;28;20292;-74
2023/03/11 02:42:52;;;;;;;6.23;1.97;;;1.00;99.90;;;;;;5041925;28;20210;-75
2023/03/11 02:45:22;;;;;;;8.37;2.17;;;0.90;99.90;;;;;;5022107;28;20308;-74
2023/03/11 02:47:49;;;;;;;4.57;2.33;;;0.90;99.90;;;;;;5041472;28;20308;-74
2023/03/11 02:50:17;;;;;;;10.97;2.47;;;0.90;99.90;;;;;;5042252;28;20197;-73
2023/03/11 02:52:46;;;;;;;6.93;2.27;;;0.90;99.90;;;;;;5023209;28;20671;-74
2023/03/11 02:55:14;;;;;;;8.33;2.40;;;0.80;99.90;;;;;;5040802;28;20215;-74
2023/03/11 02:57:41;;;;;;;9.97;2.20;;;0.80;99.90;;;;;;5040611;28;20251;-73
2023/03/11 03:00:11;;;;;;;7.53;2.20;;;0.90;99.90;;;;;;5041093;28;20210;-75
2023/03/11 03:02:39;;;;;;;5.03;2.53;;;0.90;99.90;;;;;;5042959;28;20260;-74
2023/03/11 03:05:07;;;;;;;5.57;2.20;;;0.90;99.90;;;;;;5026584;28;20248;-73
2023/03/11 03:07:33;;;;;;;7.93;2.10;;;0.90;99.90;;;;;;5025444;28;20201;-75
2023/03/11 03:10:01;;;;;;;10.80;3.00;;;0.90;99.90;;;;;;5044455;28;20209;-74
2023/03/11 03:12:27;;;;;;;5.80;2.80;;;0.90;99.90;;;;;;5047061;28;20725;-75
2023/03/11 03:14:54;;;;;;;9.60;2.33;;;0.90;99.90;;;;;;5029254;28;20311;-74
2023/03/11 03:17:21;;;;;;;5.90;2.00;;;1.00;99.90;;;;;;5044343;28;20228;-73
2023/03/11 03:19:48;;;;;;;5.77;2.17;;;1.00;99.90;;;;;;5025763;28;20206;-74
2023/03/11 03:22:15;;;;;;;6.57;2.23;;;1.00;99.90;;;;;;5042926;28;20228;-74
2023/03/11 03:24:42;;;;;;;11.20;2.07;;;1.00;99.90;;;;;;5046747;28;20197;-74
2023/03/11 03:27:08;;;;;;;9.13;2.10;;;0.90;99.90;;;;;;5015341;28;20200;-73
2023/03/11 03:29:35;;;;;;;7.70;2.40;;;0.90;99.90;;;;;;5044516;28;20216;-74
2023/03/11 03:32:02;;;;;;;6.83;2.30;;;0.90;99.90;;;;;;5042208;28;20205;-75
2023/03/11 03:34:29;;;;;;;8.83;2.47;;;0.90;99.90;;;;;;5044419;28;20661;-74
2023/03/11 03:36:55;;;;;;;9.77;2.67;;;0.90;99.90;;;;;;5043022;28;20225;-74
2023/03/11 03:39:22;;;;;;;8.63;2.40;;;0.80;99.90;;;;;;5026979;28;20206;-75
2023/03/11 03:41:49;;;;;;;6.53;2.00;;;0.70;99.90;;;;;;5044929;28;20693;-74
2023/03/11 03:44:16;;;;;;;9.33;2.10;;;0.70;99.90;;;;;;5041044;28;20204;-75
2023/03/11 03:46:42;;;;;;;9.57;2.40;;;0.60;99.90;;;;;;5026091;28;20689;-74
2023/03/11 03:49:09;;;;;;;8.77;3.43;;;0.60;99.90;;;;;;5025256;28;20246;-74
2023/03/11 03:51:36;;;;;;;5.00;1.90;;;0.50;99.90;;;;;;5045015;28;20212;-74
2023/03/11 03:54:03;;;;;;;9.00;2.10;;;0.50;99.90;;;;;;5046596;28;20200;-73
2023/03/11 03:56:29;;;;;;;6.20;2.17;;;0.50;99.90;;;;;;5032103;28;20288;-75
2023/03/11 03:58:56;;;;;;;9.73;2.57;;;0.40;99.90;;;;;;5042864;28;20292;-75
2023/03/11 04:01:23;;;;;;;5.90;2.47;;;0.40;99.90;;;;;;5041949;28;20233;-74
2023/03/11 04:03:49;;;;;;;8.37;2.87;;;0.40;99.90;;;;;;5043460;28;20227;-75
2023/03/11 04:06:19;;;;;;;7.50;2.40;;;0.30;99.90;;;;;;5044446;28;20236;-74
2023/03/11 04:08:49;;;;;;;8.90;2.10;;;0.30;99.90;;;;;;5041282;28;20296;-74
2023/03/11 04:11:16;;;;;;;6.80;2.27;;;0.30;99.90;;;;;;5043399;28;20243;-75
2023/03/11 04:13:43;;;;;;;10.23;2.60;;;0.30;99.90;;;;;;5044242;28;20210;-75
2023/03/11 04:16:17;;;;;;;9.73;2.10;;;0.30;99.90;;;;;;5025376;28;20202;-74
2023/03/11 04:18:43;;;;;;;8.63;2.83;;;0.30;99.90;;;;;;5042939;28;20241;-74
2023/03/11 04:21:10;;;;;;;4.77;2.30;;;0.30;99.90;;;;;;5026466;28;20237;-74
2023/03/11 04:23:37;;;;;;;5.60;2.17;;;0.40;99.90;;;;;;5025070;28;20211;-74
2023/03/11 04:26:04;;;;;;;11.53;2.20;;;0.40;99.90;;;;;;5043767;28;20201;-73
2023/03/11 04:28:31;;;;;;;4.83;2.43;;;0.40;99.90;;;;;;5026947;28;20238;-74
2023/03/11 04:30:58;;;;;;;5.10;2.33;;;0.50;99.90;;;;;;5043960;28;20213;-75
2023/03/11 04:33:25;;;;;;;5.40;2.10;;;0.40;99.90;;;;;;5006010;28;20298;-74
2023/03/11 04:35:52;;;;;;;3.70;1.90;;;0.50;99.90;;;;;;5025911;28;20232;-75
2023/03/11 04:38:18;;;;;;;6.37;2.07;;;0.40;99.90;;;;;;5041628;28;20214;-74
2023/03/11 04:40:45;;;;;;;5.40;1.97;;;0.40;99.90;;;;;;5040502;28;20251;-74
2023/03/11 04:43:12;;;;;;;8.67;2.23;;;0.40;99.90;;;;;;5043947;28;20274;-74
2023/03/11 04:45:39;;;;;;;6.23;2.20;;;0.40;99.90;;;;;;5040508;28;20389;-74
2023/03/11 04:48:06;;;;;;;7.47;2.13;;;0.30;99.90;;;;;;5040085;28;20325;-75
2023/03/11 04:50:33;;;;;;;6.73;2.30;;;0.30;99.90;;;;;;5045991;28;20291;-74
2023/03/11 04:53:00;;;;;;;7.33;2.10;;;0.30;99.90;;;;;;5041952;28;20220;-73
2023/03/11 04:55:27;;;;;;;5.70;2.03;;;0.20;99.90;;;;;;5047165;28;20208;-74
2023/03/11 04:57:53;;;;;;;4.13;1.73;;;0.20;99.90;;;;;;5042844;28;20307;-73
2023/03/11 05:00:23;;;;;;;10.67;2.13;;;0.10;99.90;;;;;;5039354;28;20212;-74
2023/03/11 05:02:50;;;;;;;5.57;2.27;;;0.10;99.90;;;;;;5043412;28;20219;-75
2023/03/11 05:05:20;;;;;;;4.80;1.93;;;0.00;99.90;;;;;;5031897;28;20236;-73
2023/03/11 05:07:47;;;;;;;3.77;2.17;;;0.00;99.90;;;;;;5041165;28;20231;-73
2023/03/11 05:10:21;;;;;;;5.60;2.07;;;0.00;99.90;;;;;;5022157;28;20213;-74
2023/03/11 05:12:50;;;;;;;5.03;2.37;;;-0.10;99.90;;;;;;5024744;28;20231;-75
2023/03/11 05:15:17;;;;;;;6.63;2.23;;;-0.10;99.90;;;;;;5023743;28;20219;-73
2023/03/11 05:17:45;;;;;;;9.90;2.67;;;-0.10;99.90;;;;;;5040035;28;20769;-74
2023/03/11 05:20:12;;;;;;;8.00;3.00;;;-0.10;99.90;;;;;;5043000;28;20257;-74
2023/03/11 05:22:41;;;;;;;7.67;2.83;;;-0.10;99.90;;;;;;5039893;28;20230;-74
2023/03/11 05:25:08;;;;;;;10.73;4.33;;;-0.20;99.90;;;;;;5040996;28;20264;-73
2023/03/11 05:27:35;;;;;;;14.00;6.40;;;-0.20;99.90;;;;;;5043477;28;20292;-73
2023/03/11 05:30:02;;;;;;;13.67;7.53;;;-0.20;99.90;;;;;;5040496;28;20209;-74
2023/03/11 05:32:29;;;;;;;16.53;6.57;;;-0.20;99.90;;;;;;5026313;28;20755;-73
2023/03/11 05:34:55;;;;;;;14.47;7.73;;;-0.20;99.90;;;;;;5042268;28;20290;-73
2023/03/11 05:37:22;;;;;;;12.83;7.40;;;-0.30;99.90;;;;;;5039493;28;20221;-74
2023/03/11 05:39:51;;;;;;;14.47;6.80;;;-0.30;99.90;;;;;;5041616;28;20292;-74
2023/03/11 05:42:18;;;;;;;8.30;4.03;;;-0.30;99.90;;;;;;5032174;28;20333;-74
2023/03/11 05:44:47;;;;;;;8.47;4.03;;;-0.30;99.90;;;;;;5033424;28;20207;-74
2023/03/11 05:47:15;;;;;;;10.20;3.60;;;-0.30;99.90;;;;;;5045802;28;20223;-73
2023/03/11 05:49:42;;;;;;;9.53;3.73;;;-0.40;99.90;;;;;;5039083;28;20212;-73
2023/03/11 05:52:09;;;;;;;8.43;3.97;;;-0.40;99.90;;;;;;5023936;28;20280;-73
2023/03/11 05:54:36;;;;;;;6.30;3.10;;;-0.40;99.90;;;;;;5043914;28;20214;-73
2023/03/11 05:57:03;;;;;;;7.30;3.57;;;-0.40;99.90;;;;;;5042601;28;20378;-74
2023/03/11 05:59:31;;;;;;;11.20;4.00;;;-0.50;99.90;;;;;;5043876;28;20215;-74
2023/03/11 06:01:58;;;;;;;6.30;3.33;;;-0.50;99.90;;;;;;5040911;28;20228;-74
2023/03/11 06:04:24;;;;;;;6.23;3.13;;;-0.50;99.90;;;;;;5040072;28;20218;-73
2023/03/11 06:06:53;;;;;;;7.07;3.17;;;-0.50;99.90;;;;;;5039790;28;20703;-74
2023/03/11 06:09:19;;;;;;;12.17;3.67;;;-0.50;99.90;;;;;;5043324;28;20222;-73
2023/03/11 06:11:46;;;;;;;7.47;2.80;;;-0.50;99.90;;;;;;5043433;28;20207;-73
2023/03/11 06:14:13;;;;;;;8.20;2.87;;;-0.50;99.90;;;;;;5039903;28;20627;-74
2023/03/11 06:16:41;;;;;;;7.50;2.70;;;-0.50;99.90;;;;;;5041831;28;20210;-73
2023/03/11 06:19:08;;;;;;;9.17;3.13;;;-0.50;99.90;;;;;;5040836;28;20215;-74
2023/03/11 06:21:35;;;;;;;7.90;3.50;;;-0.50;99.90;;;;;;5039102;28;20349;-75
2023/03/11 06:24:02;;;;;;;10.10;4.40;;;-0.50;99.90;;;;;;5037788;28;20525;-72
2023/03/11 06:26:28;;;;;;;9.50;3.93;;;-0.50;99.90;;;;;;5038540;28;20639;-73
2023/03/11 06:28:55;;;;;;;8.77;3.93;;;-0.50;99.90;;;;;;5005990;28;20246;-73
2023/03/11 06:31:25;;;;;;;10.00;3.47;;;-0.50;99.90;;;;;;5041951;28;20835;-73
2023/03/11 06:33:57;;;;;;;8.80;3.60;;;-0.50;99.90;;;;;;5039442;28;20235;-74
2023/03/11 06:36:24;;;;;;;5.87;2.50;;;-0.50;99.90;;;;;;5049508;28;20693;-73
2023/03/11 06:38:53;;;;;;;7.60;3.93;;;-0.40;99.90;;;;;;5019858;28;20226;-74
2023/03/11 06:41:20;;;;;;;8.10;5.13;;;-0.40;99.90;;;;;;5036599;28;20236;-73
2023/03/11 06:43:46;;;;;;;11.33;6.07;;;-0.40;99.90;;;;;;5026064;28;20213;-73
2023/03/11 06:46:21;;;;;;;9.13;4.37;;;-0.40;99.90;;;;;;5041002;28;20285;-72
2023/03/11 06:48:51;;;;;;;12.87;7.30;;;-0.30;99.90;;;;;;5039759;28;20678;-75
2023/03/11 06:51:19;;;;;;;12.07;7.37;;;-0.30;99.90;;;;;;5027959;28;20567;-74
2023/03/11 06:53:51;;;;;;;14.27;9.07;;;-0.20;99.90;;;;;;5040845;28;20220;-74
2023/03/11 06:56:20;;;;;;;13.63;8.07;;;-0.20;99.90;;;;;;5040781;28;20214;-73
2023/03/11 06:58:47;;;;;;;13.20;8.40;;;-0.20;99.90;;;;;;5037475;28;20213;-73
2023/03/11 07:01:16;;;;;;;23.93;12.73;;;-0.10;99.90;;;;;;5023904;28;20194;-74
2023/03/11 07:03:46;;;;;;;32.20;12.80;;;0.40;99.90;;;;;;5039438;28;20225;-74
2023/03/11 07:06:14;;;;;;;112.17;17.20;;;1.20;99.90;;;;;;5037714;28;20230;-74
2023/03/11 07:08:41;;;;;;;264.37;23.87;;;2.20;99.90;;;;;;5038486;28;20285;-73
2023/03/11 07:11:21;;;;;;;435.57;33.80;;;3.10;99.90;;;;;;5043991;28;20702;-74
2023/03/11 07:13:48;;;;;;;98.30;9.23;;;4.00;99.90;;;;;;5041403;28;20236;-74
2023/03/11 07:16:18;;;;;;;802.57;54.77;;;4.90;99.90;;;;;;5035993;28;20289;-74
2023/03/11 07:18:48;;;;;;;158.73;10.87;;;5.70;99.90;;;;;;5026890;28;20217;-75
2023/03/11 07:21:17;;;;;;;564.07;37.77;;;6.40;99.90;;;;;;5026589;28;20203;-75
2023/03/11 07:23:45;;;;;;;262.37;20.70;;;7.00;99.90;;;;;;5037446;28;20203;-75
2023/03/11 07:26:13;;;;;;;75.93;9.30;;;7.30;99.90;;;;;;5037344;28;20663;-76
2023/03/11 07:28:41;;;;;;;127.20;12.67;;;7.40;99.90;;;;;;5038308;28;20622;-75
2023/03/11 07:31:14;;;;;;;216.47;15.33;;;7.60;99.90;;;;;;5036679;28;20217;-75
2023/03/11 07:33:42;;;;;;;26.40;3.57;;;8.00;99.90;;;;;;5033993;28;20519;-74
2023/03/11 07:36:17;;;;;;;6.13;2.10;;;8.20;99.90;;;;;;5040374;28;20199;-74
2023/03/11 07:38:45;;;;;;;9.17;1.80;;;8.50;99.90;;;;;;5037607;28;20298;-75
2023/03/11 07:41:12;;;;;;;9.30;1.60;;;8.60;99.90;;;;;;5040971;28;20197;-74
2023/03/11 07:43:41;;;;;;;5.13;1.53;;;8.40;99.90;;;;;;5040824;28;20258;-75
2023/03/11 07:46:09;;;;;;;4.07;1.80;;;8.00;99.90;;;;;;5044736;28;20289;-75
2023/03/11 07:48:37;;;;;;;6.13;1.70;;;7.50;99.90;;;;;;5046535;28;20271;-74
2023/03/11 07:51:08;;;;;;;3.17;2.73;;;7.00;99.90;;;;;;5048271;28;20627;-73
2023/03/11 07:53:35;;;;;;;4.03;1.50;;;;;;;;;;5026379;28;20656;-73
2023/03/11 07:56:03;;;;;;;6.83;1.90;;;5.90;99.90;;;;;;5048819;28;20216;-73
2023/03/11 07:58:29;;;;;;;4.00;1.80;;;5.50;99.90;;;;;;5042233;28;20209;-73
2023/03/11 08:01:03;;;;;;;5.13;1.73;;;5.20;99.90;;;;;;5042159;28;20241;-74
2023/03/11 08:03:29;;;;;;;6.60;1.90;;;4.90;99.90;;;;;;5044388;28;20302;-74
2023/03/11 08:05:57;;;;;;;4.03;2.00;;;;;;;;;;5026600;28;20713;-72
2023/03/11 08:08:23;;;;;;;4.63;2.30;;;4.30;99.90;;;;;;5045380;28;20300;-72
2023/03/11 08:10:50;;;;;;;2.77;2.17;;;4.20;99.90;;;;;;5047634;28;20668;-72
2023/03/11 08:13:17;;;;;;;4.10;2.10;;;4.00;99.90;;;;;;5044325;28;20741;-72
2023/03/11 08:15:44;;;;;;;4.13;1.80;;;3.90;99.90;;;;;;5046482;28;20208;-72
2023/03/11 08:18:10;;;;;;;5.40;2.03;;;3.70;99.90;;;;;;5041356;28;20244;-71
2023/03/11 08:20:38;;;;;;;4.80;1.97;;;3.60;99.90;;;;;;5028395;28;20292;-71
2023/03/11 08:23:05;;;;;;;7.90;1.90;;;3.50;99.90;;;;;;5041898;28;20692;-73
2023/03/11 08:25:32;;;;;;;9.77;2.17;;;3.40;99.90;;;;;;5024560;28;20216;-69
2023/03/11 08:27:58;;;;;;;6.97;2.20;;;3.30;99.90;;;;;;5013274;28;20243;-74
2023/03/11 08:30:25;;;;;;;4.70;2.00;;;3.30;99.90;;;;;;5040712;28;20209;-73
2023/03/11 08:32:52;;;;;;;3.83;2.13;;;3.20;99.90;;;;;;5044165;28;20232;-73
2023/03/11 08:35:19;;;;;;;8.13;2.40;;;3.20;99.90;;;;;;5029746;28;20246;-72
2023/03/11 08:37:46;;;;;;;2.87;1.80;;;3.20;99.90;;;;;;5042755;28;20226;-72
2023/03/11 08:40:14;;;;;;;4.03;1.90;;;3.10;99.90;;;;;;5044416;28;20203;-73
2023/03/11 08:42:40;;;;;;;4.83;2.27;;;3.00;99.90;;;;;;5042625;28;20277;-72
2023/03/11 08:45:08;;;;;;;3.13;2.07;;;3.00;99.90;;;;;;5043982;28;20207;-72
2023/03/11 08:47:36;;;;;;;5.50;1.90;;;2.90;99.90;;;;;;5045259;28;20220;-74
2023/03/11 08:50:13;;;;;;;5.10;1.70;;;2.90;99.90;;;;;;5042375;28;20722;-73
2023/03/11 08:52:40;;;;;;;5.33;1.93;;;2.90;99.90;;;;;;5026125;28;20232;-72
2023/03/11 08:55:10;;;;;;;3.87;1.60;;;2.90;99.90;;;;;;5048748;28;20244;-72
2023/03/11 08:57:37;;;;;;;2.20;1.40;;;2.90;99.90;;;;;;5041480;28;20212;-73
2023/03/11 09:00:06;;;;;;;2.87;1.60;;;2.90;99.90;;;;;;5039940;28;20211;-71
2023/03/11 09:02:33;;;;;;;3.97;1.37;;;2.90;99.90;;;;;;5009593;28;20321;-72
2023/03/11 09:04:59;;;;;;;3.13;1.67;;;3.10;99.90;;;;;;5041114;28;20678;-73
2023/03/11 09:07:26;;;;;;;3.80;1.50;;;3.30;99.90;;;;;;5049065;28;20205;-72
2023/03/11 09:09:53;;;;;;;2.47;1.40;;;3.70;99.90;;;;;;5039189;28;20278;-73
2023/03/11 09:12:21;;;;;;;2.20;1.30;;;4.10;99.90;;;;;;5041987;28;20198;-72
2023/03/11 09:14:48;;;;;;;3.83;1.40;;;4.50;99.90;;;;;;5043998;28;20205;-72
2023/03/11 09:17:16;;;;;;;2.53;1.30;;;4.90;99.90;;;;;;5026375;28;20202;-71
2023/03/11 09:19:42;;;;;;;6.50;1.33;;;5.40;99.90;;;;;;5040306;28;20205;-72
2023/03/11 09:22:09;;;;;;;2.83;1.40;;;5.50;99.90;;;;;;5042191;28;20233;-72
2023/03/11 09:24:36;;;;;;;5.23;1.23;;;5.70;99.90;;;;;;5043954;28;20210;-72
2023/03/11 09:27:03;;;;;;;4.67;1.30;;;5.80;99.90;;;;;;5043604;28;20284;-71
2023/03/11 09:29:30;;;;;;;3.50;1.43;;;6.00;99.90;;;;;;5041726;28;20208;-71
2023/03/11 09:31:57;;;;;;;2.13;1.50;;;6.30;99.90;;;;;;5046052;28;20193;-70
2023/03/11 09:34:24;;;;;;;2.73;1.27;;;6.50;99.90;;;;;;5042732;28;20220;-70
2023/03/11 09:36:51;;;;;;;3.33;1.40;;;6.60;99.90;;;;;;5007376;28;20203;-71
2023/03/11 09:39:18;;;;;;;2.93;1.40;;;6.70;99.90;;;;;;5040986;28;20659;-71
2023/03/11 09:41:44;;;;;;;3.10;1.60;;;6.90;99.90;;;;;;5040620;28;20288;-71
2023/03/11 09:44:27;;;;;;;3.10;1.20;;;6.90;99.90;;;;;;5040356;28;20663;-72
2023/03/11 09:47:16;;;;;;;2.80;1.30;;;6.80;99.90;;;;;;5043401;28;21493;-71
2023/03/11 09:50:22;;;;;;;2.43;1.30;;;6.80;99.90;;;;;;5042177;28;20198;-72
2023/03/11 09:53:00;;;;;;;3.87;1.50;;;6.80;99.90;;;;;;5021843;28;20552;-70
2023/03/11 09:55:36;;;;;;;16.80;2.03;;;6.70;99.90;;;;;;5046871;28;20305;-73
2023/03/11 09:58:17;;;;;;;4.70;1.17;;;6.60;99.90;;;;;;5039826;28;20338;-72
2023/03/11 10:00:45;;;;;;;2.63;1.60;;;6.70;99.90;;;;;;5040642;28;20590;-72
2023/03/11 10:03:23;;;;;;;3.70;1.27;;;6.70;99.90;;;;;;5038850;28;20226;-73
2023/03/11 10:05:53;;;;;;;6.63;1.20;;;6.60;99.90;;;;;;5041504;28;20236;-74
2023/03/11 10:08:39;;;;;;;4.13;1.10;;;6.50;99.90;;;;;;5040129;28;20210;-71
2023/03/11 10:11:47;;;;;;;5.03;1.13;;;6.50;99.90;;;;;;5043129;28;20750;-72
2023/03/11 10:14:26;;;;;;;3.87;1.00;;;6.40;99.90;;;;;;5002190;28;20204;-72
2023/03/11 10:17:29;;;;;;;6.23;1.20;;;6.20;99.90;;;;;;5038743;28;20292;-71
2023/03/11 10:20:21;;;;;;;3.50;1.20;;;5.90;99.90;;;;;;5040503;28;20296;-72
2023/03/11 10:22:57;;;;;;;4.40;1.30;;;5.90;99.90;;;;;;5040119;28;20243;-73
2023/03/11 10:25:55;;;;;;;3.80;1.00;;;5.80;99.90;;;;;;5041848;28;20221;-71
2023/03/11 10:28:39;;;;;;;2.73;1.10;;;5.70;99.90;;;;;;5027278;28;20197;-72
2023/03/11 10:31:27;;;;;;;3.13;1.30;;;5.70;99.90;;;;;;5041330;28;20224;-71
2023/03/11 10:34:03;;;;;;;3.50;1.00;;;5.80;99.90;;;;;;5042551;28;20240;-72
2023/03/11 10:37:10;;;;;;;5.00;1.17;;;5.80;99.90;;;;;;5043168;28;20241;-72
2023/03/11 10:39:38;;;;;;;5.83;1.70;;;5.80;99.90;;;;;;5029987;28;20298;-72
2023/03/11 10:42:09;;;;;;;5.87;1.47;;;5.80;99.90;;;;;;5037201;28;20214;-73
2023/03/11 10:44:38;;;;;;;4.90;1.50;;;5.70;99.90;;;;;;5039850;28;20214;-72
2023/03/11 10:47:11;;;;;;;5.03;1.50;;;5.80;99.90;;;;;;5040490;28;20242;-72
2023/03/11 10:49:37;;;;;;;3.27;0.87;;;5.70;99.90;;;;;;5041759;28;20205;-74
2023/03/11 10:52:05;;;;;;;5.40;1.00;;;5.70;99.90;;;;;;5035941;28;20232;-71
2023/03/11 10:54:45;;;;;;;3.60;1.50;;;5.70;99.90;;;;;;5025745;28;20206;-72
2023/03/11 10:57:25;;;;;;;1.97;1.20;;;5.70;99.90;;;;;;5042410;28;20203;-74
2023/03/11 10:59:53;;;;;;;2.60;1.50;;;5.70;99.90;;;;;;5020516;28;20208;-73
2023/03/11 11:02:39;;;;;;;5.43;1.70;;;5.90;99.90;;;;;;5037776;28;20265;-73
2023/03/11 11:05:17;;;;;;;5.27;2.20;;;6.00;99.90;;;;;;5037549;28;20255;-74
2023/03/11 11:07:46;;;;;;;5.47;1.70;;;6.10;99.90;;;;;;5041756;28;20208;-72
2023/03/11 11:10:22;;;;;;;4.70;1.90;;;6.10;99.90;;;;;;5041191;28;20202;-73
2023/03/11 11:13:11;;;;;;;8.00;1.90;;;6.10;99.90;;;;;;5042212;28;20302;-74
2023/03/11 11:15:57;;;;;;;5.53;1.90;;;6.00;99.90;;;;;;5038996;28;20224;-73
2023/03/11 11:18:26;;;;;;;7.63;3.00;;;6.00;99.90;;;;;;5041693;28;20219;-74
2023/03/11 11:21:05;;;;;;;5.63;2.20;;;6.10;99.90;;;;;;5046711;28;20301;-74
2023/03/11 11:23:40;;;;;;;5.93;2.60;;;6.20;99.90;;;;;;5044954;28;20335;-73
2023/03/11 11:26:15;;;;;;;5.93;2.53;;;6.40;99.90;;;;;;5044233;28;20262;-73
2023/03/11 11:28:41;;;;;;;6.50;2.63;;;6.40;99.90;;;;;;5044475;28;20239;-74
2023/03/11 11:31:25;;;;;;;6.53;2.90;;;6.40;99.90;;;;;;5046341;28;20205;-75
2023/03/11 11:33:54;;;;;;;4.87;2.47;;;6.40;99.90;;;;;;5043223;28;20218;-75
2023/03/11 11:36:28;;;;;;;4.70;2.33;;;6.40;99.90;;;;;;5044396;28;20203;-74
2023/03/11 11:38:56;;;;;;;6.17;2.33;;;6.30;99.90;;;;;;5045340;28;20301;-74
2023/03/11 11:41:24;;;;;;;6.80;2.50;;;6.20;99.90;;;;;;5048448;28;20254;-76
2023/03/11 11:43:53;;;;;;;6.43;2.47;;;6.20;99.90;;;;;;5045778;28;20312;-75
2023/03/11 11:46:30;;;;;;;11.40;2.60;;;6.30;99.90;;;;;;5035863;28;20282;-73
2023/03/11 11:49:20;;;;;;;6.40;2.53;;;6.30;99.90;;;;;;5027801;28;20215;-73
2023/03/11 11:51:50;;;;;;;5.77;2.40;;;6.30;99.90;;;;;;5041482;28;20303;-73
2023/03/11 11:54:23;;;;;;;3.77;2.57;;;6.40;99.90;;;;;;5049450;28;20313;-73
2023/03/11 11:56:50;;;;;;;5.93;2.37;;;6.40;99.90;;;;;;5024212;28;20215;-74
2023/03/11 11:59:20;;;;;;;6.07;2.43;;;6.50;99.90;;;;;;5041236;28;20208;-74
2023/03/11 12:02:05;;;;;;;5.53;2.40;;;6.60;99.90;;;;;;5042152;28;20609;-73
2023/03/11 12:04:55;;;;;;;6.77;2.30;;;6.60;99.90;;;;;;5043517;28;20305;-74
2023/03/11 12:07:41;;;;;;;6.87;2.10;;;6.60;99.90;;;;;;5045867;28;20206;-73
2023/03/11 12:10:16;;;;;;;8.07;1.97;;;6.70;99.90;;;;;;5042519;28;20327;-73
2023/03/11 12:13:32;;;;;;;5.27;2.63;;;6.80;99.90;;;;;;5038654;28;20298;-74
2023/03/11 12:16:30;;;;;;;5.17;2.13;;;6.90;99.90;;;;;;5047447;28;20236;-73
2023/03/11 12:19:09;;;;;;;3.53;1.50;;;7.20;99.90;;;;;;5040945;28;20624;-73
2023/03/11 12:22:09;;;;;;;3.87;1.97;;;7.30;99.90;;;;;;5028768;28;20266;-73
2023/03/11 12:24:58;;;;;;;2.00;1.30;;;7.30;99.90;;;;;;5045125;28;20316;-74
2023/03/11 12:27:50;;;;;;;4.53;1.70;;;7.40;99.90;;;;;;5031752;28;20276;-75
2023/03/11 12:30:22;;;;;;;4.33;1.60;;;7.40;99.90;;;;;;5042442;28;20284;-77
2023/03/11 12:33:01;;;;;;;2.70;1.57;;;7.50;99.90;;;;;;5043994;28;20245;-75
2023/03/11 12:35:31;;;;;;;2.83;1.50;;;7.60;99.90;;;;;;5047465;28;20284;-74
2023/03/11 12:38:04;;;;;;;6.87;1.40;;;7.60;99.90;;;;;;5038033;28;20225;-74
2023/03/11 12:40:55;;;;;;;3.80;1.67;;;7.70;99.90;;;;;;5046957;28;20283;-74
2023/03/11 12:43:46;;;;;;;5.07;1.97;;;7.70;99.90;;;;;;5040014;28;20229;-75
2023/03/11 12:46:18;;;;;;;7.70;1.70;;;7.60;99.90;;;;;;5045729;28;20591;-73
2023/03/11 12:48:49;;;;;;;4.23;1.70;;;7.70;99.90;;;;;;5045007;28;20225;-73
2023/03/11 12:51:33;;;;;;;2.33;1.77;;;7.60;99.90;;;;;;5044859;28;20205;-73
2023/03/11 12:54:19;;;;;;;3.70;1.60;;;7.70;99.90;;;;;;5042059;28;20891;-74
2023/03/11 12:56:54;;;;;;;4.53;1.90;;;7.70;99.90;;;;;;5043774;28;20214;-78
2023/03/11 12:59:39;;;;;;;3.70;1.77;;;7.70;99.90;;;;;;5041347;28;20204;-74
2023/03/11 13:02:12;;;;;;;4.77;1.67;;;7.60;99.90;;;;;;5023746;28;20217;-74
2023/03/11 13:04:45;;;;;;;3.03;1.50;;;7.50;99.90;;;;;;5046984;28;20275;-73
2023/03/11 13:07:51;;;;;;;3.27;1.50;;;7.50;99.90;;;;;;5018567;28;20276;-73
2023/03/11 13:10:33;;;;;;;5.53;1.50;;;7.50;99.90;;;;;;5017782;28;20224;-73
2023/03/11 13:13:01;;;;;;;4.47;1.60;;;7.70;99.90;;;;;;5021208;28;20212;-73